Time;durP1;ratioP1;P1;durP2;ratioP2;P2;SDS_P1;SDS_P2;PMS_P1;PMS_P2;Temp;Humidity;BMP_temperature;BMP_pressure;BME280_temperature;BME280_humidity;BME280_pressure;Samples;Min_cycle;Max_cycle;Signal;HPM_P1;HPM_P2
2023/10/18 00:01:25;;;;;;;;;;;;;;;20.49;29.54;98233.25;5002282;28;946;-75
2023/10/18 00:03:54;;;;;;;;;;;;;;;20.50;29.46;98226.38;5019079;28;1975;-76
2023/10/18 00:06:22;;;;;;;;;;;;;;;20.59;29.12;98228.63;4986338;28;1076;-76
2023/10/18 00:08:47;;;;;;;;;;;;;;;20.48;29.07;98231.66;5016771;28;899;-76
2023/10/18 00:11:13;;;;;;;;;;;;;;;20.67;28.73;98225.22;4984531;28;1459;-76
2023/10/18 00:13:39;;;;;;;;;;;;;;;20.64;28.82;98223.28;4997354;28;997;-76
2023/10/18 00:16:05;;;;;;;;;;;;;;;20.57;28.99;98225.44;4964862;28;982;-76
2023/10/18 00:18:32;;;;;;;;;;;;;;;20.35;29.42;98225.78;4964819;28;903;-76
2023/10/18 00:20:59;;;;;;;;;;;;;;;20.20;29.53;98222.41;4965120;28;982;-76
2023/10/18 00:23:25;;;;;;;;;;;;;;;20.53;28.87;98214.22;4964788;28;1946;-75
2023/10/18 00:25:51;;;;;;;;;;;;;;;20.69;28.70;98217.13;4980905;28;935;-76
2023/10/18 00:28:17;;;;;;;;;;;;;;;20.32;28.98;98175.00;4997019;28;1134;-76
2023/10/18 00:30:42;;;;;;;;;;;;;;;20.76;28.42;98228.28;4980991;28;1045;-76
2023/10/18 00:33:09;;;;;;;;;;;;;;;20.64;28.62;98226.09;4980903;28;1187;-75
2023/10/18 00:35:36;;;;;;;;;;;;;;;20.78;28.47;98219.38;4981263;28;996;-76
2023/10/18 00:38:03;;;;;;;;;;;;;;;21.12;28.29;98210.59;4981170;28;891;-75
2023/10/18 00:43:20;;;;;;;;;;;;;;;21.05;28.05;98217.19;4997074;28;1914;-76
2023/10/18 00:45:47;;;;;;;;;;;;;;;20.91;28.18;98223.16;4980289;28;1334;-76
2023/10/18 00:48:14;;;;;;;;;;;;;;;20.71;28.30;98220.31;4980532;28;1291;-76
2023/10/18 00:50:45;;;;;;;;;;;;;;;20.48;28.87;98226.00;4999844;28;1110;-76
2023/10/18 00:53:11;;;;;;;;;;;;;;;20.22;29.43;98222.81;4999863;28;1173;-77
2023/10/18 00:55:37;;;;;;;;;;;;;;;20.42;29.04;98224.88;4999608;28;967;-76
2023/10/18 00:58:08;;;;;;;;;;;;;;;20.53;28.88;98217.03;4996635;28;1151;-76
2023/10/18 01:00:35;;;;;;;;;;;;;;;20.72;28.60;98219.06;4981197;28;999;-76
2023/10/18 01:03:06;;;;;;;;;;;;;;;20.46;28.92;98217.13;4963988;28;1984;-76
2023/10/18 01:05:32;;;;;;;;;;;;;;;20.59;29.05;98218.13;4960638;28;1342;-76
2023/10/18 01:07:59;;;;;;;;;;;;;;;20.78;28.61;98220.19;4944682;28;1210;-76
2023/10/18 01:10:24;;;;;;;;;;;;;;;20.53;28.74;98208.56;4960979;28;1123;-76
2023/10/18 01:12:53;;;;;;;;;;;;;;;21.01;28.34;98218.50;4957554;28;1131;-76
2023/10/18 01:15:19;;;;;;;;;;;;;;;21.11;28.20;98211.81;4941537;29;1077;-76
2023/10/18 01:17:47;;;;;;;;;;;;;;;21.21;27.96;98219.28;4941382;29;948;-76
2023/10/18 01:22:57;;;;;;;;;;;;;;;20.72;28.73;98219.06;4943695;29;1906;-76
2023/10/18 01:25:24;;;;;;;;;;;;;;;20.60;28.66;98225.38;4960671;28;1097;-76
2023/10/18 01:27:50;;;;;;;;;;;;;;;20.54;28.87;98227.09;4953182;29;967;-76
2023/10/18 01:30:16;;;;;;;;;;;;;;;20.67;28.52;98230.09;4957331;29;885;-76
2023/10/18 01:32:42;;;;;;;;;;;;;;;20.49;28.80;98224.78;4957226;29;894;-76
2023/10/18 01:35:08;;;;;;;;;;;;;;;20.44;28.95;98216.75;4940975;29;989;-76
2023/10/18 01:37:34;;;;;;;;;;;;;;;20.63;28.64;98229.38;4957089;28;1264;-76
2023/10/18 01:40:20;;;;;;;;;;;;;;;20.67;28.58;98230.88;4957121;28;1661;-76
2023/10/18 01:42:45;;;;;;;;;;;;;;;20.63;28.97;98240.69;4950836;28;1985;-75
2023/10/18 01:45:11;;;;;;;;;;;;;;;20.66;28.66;98225.66;4995683;28;1277;-75
2023/10/18 01:47:38;;;;;;;;;;;;;;;20.56;28.77;98230.28;4995849;28;917;-76
2023/10/18 01:50:04;;;;;;;;;;;;;;;20.47;28.80;98224.41;4995663;28;1221;-76
2023/10/18 01:52:30;;;;;;;;;;;;;;;20.37;29.32;98223.34;4995896;28;1233;-75
2023/10/18 01:54:55;;;;;;;;;;;;;;;20.70;28.66;98223.56;4995656;28;1175;-76
2023/10/18 01:57:21;;;;;;;;;;;;;;;21.29;27.90;98225.56;4976093;28;1264;-76
2023/10/18 01:59:48;;;;;;;;;;;;;;;21.13;27.80;98223.50;4960182;28;1156;-76
2023/10/18 02:02:15;;;;;;;;;;;;;;;21.32;27.43;98231.19;4976067;28;1157;-76
2023/10/18 02:04:40;;;;;;;;;;;;;;;20.89;27.98;98241.78;4976042;28;1914;-75
2023/10/18 02:07:07;;;;;;;;;;;;;;;20.80;28.21;98231.84;4959835;28;1242;-76
2023/10/18 02:09:36;;;;;;;;;;;;;;;20.46;28.75;98231.25;4940743;29;1132;-75
2023/10/18 02:12:07;;;;;;;;;;;;;;;20.53;28.90;98225.50;4941020;29;1128;-76
2023/10/18 02:14:33;;;;;;;;;;;;;;;20.48;29.07;98228.84;4960067;28;1295;-76
2023/10/18 02:16:59;;;;;;;;;;;;;;;20.42;28.82;98224.88;4959460;28;983;-76
2023/10/18 02:19:26;;;;;;;;;;;;;;;20.55;28.62;98223.03;4959278;28;1051;-76
2023/10/18 02:21:52;;;;;;;;;;;;;;;20.59;28.76;98229.44;4901939;29;1205;-76
2023/10/18 02:24:18;;;;;;;;;;;;;;;20.48;28.54;98223.97;4902507;29;1907;-76
2023/10/18 02:26:54;;;;;;;;;;;;;;;20.56;28.46;98227.47;4902598;29;941;-76
2023/10/18 02:29:22;;;;;;;;;;;;;;;20.67;28.40;98225.22;4919350;29;1486;-75
2023/10/18 02:31:57;;;;;;;;;;;;;;;20.33;28.72;98233.13;4921229;29;1231;-76
2023/10/18 02:34:25;;;;;;;;;;;;;;;20.69;28.51;98222.78;4937138;29;934;-76
2023/10/18 02:36:55;;;;;;;;;;;;;;;21.28;27.33;98224.78;4937317;29;1093;-76
2023/10/18 02:39:24;;;;;;;;;;;;;;;21.08;27.64;98212.69;4936862;29;944;-75
2023/10/18 02:41:50;;;;;;;;;;;;;;;21.06;27.51;98213.13;4921429;29;946;-76
2023/10/18 02:44:22;;;;;;;;;;;;;;;20.92;28.08;98218.28;4905290;29;1915;-75
2023/10/18 02:46:51;;;;;;;;;;;;;;;20.44;28.66;98216.75;4895849;29;948;-76
2023/10/18 02:49:17;;;;;;;;;;;;;;;20.57;28.35;98209.25;4917631;29;1099;-75
2023/10/18 02:51:43;;;;;;;;;;;;;;;20.32;28.96;98208.94;4903050;29;1121;-76
2023/10/18 02:56:40;;;;;;;;;;;;;;;21.31;27.50;98212.63;4936990;29;1182;-76
2023/10/18 02:59:08;;;;;;;;;;;;;;;21.41;27.25;98205.13;4940206;28;962;-75
2023/10/18 03:01:34;;;;;;;;;;;;;;;20.94;27.86;98199.66;4994681;28;813;-78
2023/10/18 03:04:00;;;;;;;;;;;;;;;20.76;28.19;98205.66;4994395;28;1906;-77
2023/10/18 03:06:33;;;;;;;;;;;;;;;20.55;28.37;98200.44;4994643;28;1123;-77
2023/10/18 03:09:00;;;;;;;;;;;;;;;20.55;28.15;98206.09;4994656;28;933;-77
2023/10/18 03:11:26;;;;;;;;;;;;;;;20.72;28.30;98204.94;4994770;28;1223;-78
2023/10/18 03:13:52;;;;;;;;;;;;;;;20.57;28.30;98214.13;4994446;28;830;-78
2023/10/18 03:16:38;;;;;;;;;;;;;;;20.25;28.96;98226.78;5014322;28;1127;-78
2023/10/18 03:19:11;;;;;;;;;;;;;;;20.61;28.49;98210.00;5039732;28;1279;-78
2023/10/18 03:21:37;;;;;;;;;;;;;;;20.70;28.16;98213.06;5018210;28;877;-78
2023/10/18 03:24:04;;;;;;;;;;;;;;;20.72;28.00;98216.25;5016956;28;1910;-78
2023/10/18 03:26:35;;;;;;;;;;;;;;;20.34;28.79;98223.41;5017142;28;1263;-78
2023/10/18 03:29:11;;;;;;;;;;;;;;;20.48;28.76;98212.69;5017274;28;1374;-77
2023/10/18 03:31:41;;;;;;;;;;;;;;;21.15;27.56;98215.38;4999176;28;1836;-78
2023/10/18 03:34:15;;;;;;;;;;;;;;;21.23;27.32;98218.84;5014531;28;1837;-78
2023/10/18 03:36:54;;;;;;;;;;;;;;;21.31;27.46;98217.50;5008443;28;1863;-77
2023/10/18 03:39:25;;;;;;;;;;;;;;;20.77;28.16;98212.91;5002733;28;1948;-77
2023/10/18 03:41:51;;;;;;;;;;;;;;;20.47;28.39;98210.28;5001535;28;1816;-78
2023/10/18 03:44:32;;;;;;;;;;;;;;;20.50;28.44;98210.19;5017300;28;1965;-78
2023/10/18 03:47:04;;;;;;;;;;;;;;;20.42;28.69;98207.94;4990651;28;968;-78
2023/10/18 03:51:57;;;;;;;;;;;;;;;20.65;28.21;98199.41;4950038;28;1490;-78
2023/10/18 03:54:23;;;;;;;;;;;;;;;20.43;28.51;98203.88;4944906;29;1672;-78
2023/10/18 03:56:52;;;;;;;;;;;;;;;20.58;28.23;98199.56;4966641;28;1525;-78
2023/10/18 03:59:21;;;;;;;;;;;;;;;20.42;28.83;98193.81;4951662;29;1557;-78
2023/10/18 04:02:15;;;;;;;;;;;;;;;20.45;28.36;98195.75;4955529;29;1610;-78
2023/10/18 04:04:44;;;;;;;;;;;;;;;20.46;28.35;98191.69;4919698;29;1914;-77
2023/10/18 04:07:13;;;;;;;;;;;;;;;20.57;28.40;98181.00;4903703;29;1626;-77
2023/10/18 04:09:40;;;;;;;;;;;;;;;20.50;28.60;98181.16;4905265;29;1520;-77
2023/10/18 04:12:07;;;;;;;;;;;;;;;20.73;28.03;98174.66;4923577;29;1479;-78
2023/10/18 04:14:33;;;;;;;;;;;;;;;21.05;27.49;98173.97;4922505;29;1396;-78
2023/10/18 04:16:59;;;;;;;;;;;;;;;21.23;27.29;98174.34;4917603;29;1432;-78
2023/10/18 04:19:25;;;;;;;;;;;;;;;21.25;27.08;98169.06;4968924;28;1647;-78
2023/10/18 04:21:53;;;;;;;;;;;;;;;20.69;28.03;98169.06;4960433;28;1497;-78
2023/10/18 04:24:23;;;;;;;;;;;;;;;20.45;28.35;98175.97;4942273;28;1919;-78
2023/10/18 04:26:50;;;;;;;;;;;;;;;20.67;28.18;98174.31;4948743;28;1397;-78
2023/10/18 04:29:23;;;;;;;;;;;;;;;20.53;28.43;98180.28;4944172;28;1624;-77
2023/10/18 04:31:49;;;;;;;;;;;;;;;20.37;28.55;98168.88;4949291;28;1626;-78
2023/10/18 04:34:20;;;;;;;;;;;;;;;20.34;28.61;98169.72;4953921;28;1553;-78
2023/10/18 04:36:46;;;;;;;;;;;;;;;20.70;28.32;98167.03;5002953;28;1516;-77
2023/10/18 04:39:11;;;;;;;;;;;;;;;20.70;28.03;98165.00;5025642;28;1562;-78
2023/10/18 04:41:37;;;;;;;;;;;;;;;20.57;28.21;98169.69;5034811;28;1488;-78
2023/10/18 04:44:06;;;;;;;;;;;;;;;20.45;28.52;98181.59;5018156;28;1930;-78
2023/10/18 04:46:32;;;;;;;;;;;;;;;20.39;28.75;98175.66;5001830;28;1552;-78
2023/10/18 04:51:26;;;;;;;;;;;;;;;20.33;28.54;98185.09;5023898;28;1483;-78
2023/10/18 04:53:57;;;;;;;;;;;;;;;20.61;28.34;98176.06;5005616;28;1513;-78
2023/10/18 04:56:29;;;;;;;;;;;;;;;20.79;28.10;98192.69;5007713;28;1524;-78
2023/10/18 04:58:59;;;;;;;;;;;;;;;21.16;27.47;98194.34;5000411;28;1425;-78
2023/10/18 05:01:32;;;;;;;;;;;;;;;21.18;27.25;98189.03;5004622;28;1527;-78
2023/10/18 05:04:00;;;;;;;;;;;;;;;21.46;26.62;98195.34;5001986;28;1975;-78
2023/10/18 05:06:29;;;;;;;;;;;;;;;21.01;27.46;98198.69;5001989;28;1627;-77
2023/10/18 05:08:56;;;;;;;;;;;;;;;20.50;28.04;98198.91;4999251;28;1528;-78
2023/10/18 05:11:25;;;;;;;;;;;;;;;20.66;27.85;98201.00;5001743;28;1599;-78
2023/10/18 05:13:56;;;;;;;;;;;;;;;20.72;27.90;98198.47;5000890;28;1505;-78
2023/10/18 05:16:26;;;;;;;;;;;;;;;21.22;27.03;98209.56;5004342;28;1946;-78
2023/10/18 05:18:52;;;;;;;;;;;;;;;21.39;26.80;98206.78;5033755;28;1543;-78
2023/10/18 05:21:20;;;;;;;;;;;;;;;21.38;26.84;98205.22;4998612;28;1820;-78
2023/10/18 05:23:46;;;;;;;;;;;;;;;20.81;27.60;98207.19;4985600;28;1911;-78
2023/10/18 05:26:18;;;;;;;;;;;;;;;20.84;27.78;98214.81;5017685;28;1654;-78
2023/10/18 05:28:47;;;;;;;;;;;;;;;20.65;28.12;98210.72;5016285;28;1748;-78
2023/10/18 05:34:04;;;;;;;;;;;;;;;20.65;27.87;98204.28;5041005;28;1518;-78
2023/10/18 05:36:35;;;;;;;;;;;;;;;20.70;28.09;98213.06;5004373;28;1217;-79
2023/10/18 05:41:45;;;;;;;;;;;;;;;20.75;27.88;98209.72;5038832;28;1252;-78
2023/10/18 05:44:12;;;;;;;;;;;;;;;20.72;28.12;98213.41;5019594;28;1918;-78
2023/10/18 05:46:39;;;;;;;;;;;;;;;20.56;28.25;98213.31;4999171;28;1345;-78
2023/10/18 05:49:13;;;;;;;;;;;;;;;20.61;28.06;98214.84;4998961;28;1065;-78
2023/10/18 05:51:39;;;;;;;;;;;;;;;20.29;28.68;98222.66;4986347;28;1458;-78
2023/10/18 05:54:08;;;;;;;;;;;;;;;20.40;28.55;98221.69;4979439;28;837;-78
2023/10/18 05:56:33;;;;;;;;;;;;;;;20.36;28.77;98220.94;4995478;28;954;-78
2023/10/18 06:01:43;;;;;;;;;;;;;;;21.38;26.98;98219.38;4981748;28;922;-78
2023/10/18 06:04:09;;;;;;;;;;;;;;;21.41;27.30;98227.00;4980935;28;1966;-78
2023/10/18 06:06:37;;;;;;;;;;;;;;;21.06;27.76;98212.34;5015017;28;1469;-78
2023/10/18 06:09:09;;;;;;;;;;;;;;;20.72;27.90;98213.41;5014440;28;1752;-78
2023/10/18 06:11:36;;;;;;;;;;;;;;;20.71;28.17;98214.66;4980984;28;1379;-77
2023/10/18 06:14:08;;;;;;;;;;;;;;;20.50;28.44;98224.34;4994850;28;1477;-78
2023/10/18 06:16:34;;;;;;;;;;;;;;;20.48;28.85;98218.34;4994759;28;1734;-78
2023/10/18 06:19:03;;;;;;;;;;;;;;;20.65;28.20;98219.22;4993345;28;1706;-78
2023/10/18 06:21:29;;;;;;;;;;;;;;;20.42;28.69;98219.25;4979000;28;1486;-78
2023/10/18 06:23:55;;;;;;;;;;;;;;;21.06;27.71;98220.81;4969947;28;1910;-78
2023/10/18 06:26:30;;;;;;;;;;;;;;;21.18;27.46;98220.16;4975417;28;1576;-77
2023/10/18 06:29:00;;;;;;;;;;;;;;;21.33;27.33;98215.81;4974544;28;1557;-78
2023/10/18 06:31:28;;;;;;;;;;;;;;;21.26;27.61;98226.47;4958374;28;1553;-78
2023/10/18 06:33:56;;;;;;;;;;;;;;;20.70;28.17;98235.69;4959314;28;1582;-78
2023/10/18 06:36:24;;;;;;;;;;;;;;;20.66;28.26;98228.50;4959566;28;1465;-78
2023/10/18 06:38:50;;;;;;;;;;;;;;;20.58;28.57;98230.66;4975279;28;1493;-77
2023/10/18 06:41:18;;;;;;;;;;;;;;;20.45;28.46;98232.50;4965418;28;1434;-78
2023/10/18 06:43:44;;;;;;;;;;;;;;;20.81;28.19;98226.97;4958385;28;1923;-78
2023/10/18 06:46:13;;;;;;;;;;;;;;;20.80;28.26;98240.31;4959005;28;1514;-78
2023/10/18 06:48:39;;;;;;;;;;;;;;;20.51;28.82;98230.78;4959044;28;1554;-78
2023/10/18 06:51:11;;;;;;;;;;;;;;;20.61;28.41;98229.78;4974979;28;1644;-78
2023/10/18 06:53:38;;;;;;;;;;;;;;;20.45;28.68;98229.66;4957235;28;1546;-78
2023/10/18 06:56:19;;;;;;;;;;;;;;;20.38;28.83;98229.81;4955974;28;1518;-78
2023/10/18 06:58:45;;;;;;;;;;;;;;;20.40;28.95;98221.69;4951925;29;1600;-78
2023/10/18 07:01:19;;;;;;;;;;;;;;;20.52;28.64;98223.91;4939634;29;1554;-78
2023/10/18 07:03:48;;;;;;;;;;;;;;;20.46;28.77;98225.59;4939692;29;1996;-78
2023/10/18 07:06:18;;;;;;;;;;;;;;;20.18;29.53;98230.53;4955783;28;1679;-78
2023/10/18 07:08:45;;;;;;;;;;;;;;;20.56;28.75;98230.28;4943908;29;1501;-78
2023/10/18 07:11:16;;;;;;;;;;;;;;;21.06;28.21;98234.97;4943825;29;1542;-79
2023/10/18 07:13:48;;;;;;;;;;;;;;;21.05;27.96;98234.19;4940104;29;1573;-78
2023/10/18 07:21:46;;;;;;;;;;;;;;;20.67;28.73;98236.53;4921071;29;1500;-78
2023/10/18 07:24:12;;;;;;;;;;;;;;;20.64;28.40;98231.75;4920438;29;1910;-78
2023/10/18 07:26:41;;;;;;;;;;;;;;;20.70;28.36;98230.03;4904947;29;1693;-78
2023/10/18 07:29:06;;;;;;;;;;;;;;;20.80;28.66;98240.31;4927480;29;1519;-78
2023/10/18 07:31:38;;;;;;;;;;;;;;;20.59;28.81;98237.91;4940617;29;1432;-78
2023/10/18 07:34:09;;;;;;;;;;;;;;;20.59;28.83;98234.28;4959119;29;1470;-78
2023/10/18 07:36:38;;;;;;;;;;;;;;;21.07;28.49;98243.00;4943443;29;1510;-78
2023/10/18 07:39:04;;;;;;;;;;;;;;;21.47;27.61;98236.56;4943192;29;1534;-79
2023/10/18 07:41:34;;;;;;;;;;;;;;;21.33;27.61;98237.66;4942979;29;1557;-78
2023/10/18 07:44:00;;;;;;;;;;;;;;;21.13;28.31;98243.28;4955439;28;1910;-78
2023/10/18 07:46:27;;;;;;;;;;;;;;;20.98;28.30;98236.34;4944594;29;1624;-78
2023/10/18 07:48:53;;;;;;;;;;;;;;;20.59;28.77;98229.44;4958590;29;1526;-78
2023/10/18 07:51:25;;;;;;;;;;;;;;;20.69;28.57;98221.97;4959073;29;1609;-78
2023/10/18 07:53:53;;;;;;;;;;;;;;;20.65;28.75;98216.38;4943308;29;1569;-79
2023/10/18 07:56:19;;;;;;;;;;;;;;;20.51;29.25;98223.09;4987569;28;1441;-78
2023/10/18 07:58:49;;;;;;;;;;;;;;;20.32;29.42;98220.22;4993526;28;1592;-78
2023/10/18 08:01:18;;;;;;;;;;;;;;;20.49;29.29;98224.78;4998455;28;1531;-79
2023/10/18 08:03:44;;;;;;;;;;;;;;;20.43;29.12;98227.28;4995375;28;1902;-78
2023/10/18 08:06:15;;;;;;;;;;;;;;;20.64;28.99;98220.44;4998320;28;1768;-78
2023/10/18 08:08:42;;;;;;;;;;;;;;;21.14;28.29;98235.59;4982327;28;1569;-78
2023/10/18 08:11:11;;;;;;;;;;;;;;;21.30;28.29;98230.84;5015981;28;1547;-78
2023/10/18 08:13:45;;;;;;;;;;;;;;;21.39;28.21;98235.09;4997165;28;1488;-78
2023/10/18 08:16:10;;;;;;;;;;;;;;;20.86;28.71;98231.34;4997685;28;1536;-78
2023/10/18 08:18:45;;;;;;;;;;;;;;;20.68;29.06;98228.88;4979161;28;1556;-78
2023/10/18 08:21:25;;;;;;;;;;;;;;;20.79;28.57;98238.75;4980832;28;1528;-78
2023/10/18 08:24:07;;;;;;;;;;;;;;;20.72;28.92;98227.53;4996625;28;1979;-79
2023/10/18 08:26:45;;;;;;;;;;;;;;;20.29;29.44;98236.78;4996730;28;1484;-78
2023/10/18 08:29:11;;;;;;;;;;;;;;;20.17;29.82;98243.06;4976091;28;1551;-78
2023/10/18 08:31:38;;;;;;;;;;;;;;;20.45;29.30;98229.66;4974218;28;1797;-78
2023/10/18 08:34:11;;;;;;;;;;;;;;;20.62;29.56;98234.22;4953846;29;1652;-78
2023/10/18 08:36:38;;;;;;;;;;;;;;;21.37;28.21;98226.25;4934535;29;1520;-78
2023/10/18 08:39:04;;;;;;;;;;;;;;;21.12;28.72;98238.88;4941022;29;1624;-78
2023/10/18 08:41:33;;;;;;;;;;;;;;;21.32;28.46;98236.06;4952429;28;1569;-78
2023/10/18 08:44:05;;;;;;;;;;;;;;;20.99;28.96;98229.47;4957661;28;1906;-79
2023/10/18 08:46:30;;;;;;;;;;;;;;;20.48;29.84;98228.84;4946785;29;1676;-78
2023/10/18 08:48:56;;;;;;;;;;;;;;;20.34;30.16;98227.03;4981632;28;1512;-78
2023/10/18 08:51:23;;;;;;;;;;;;;;;20.44;29.93;98228.06;4963603;28;1772;-78
2023/10/18 08:53:50;;;;;;;;;;;;;;;20.35;30.18;98230.66;4962573;28;1637;-78
2023/10/18 08:56:15;;;;;;;;;;;;;;;20.54;30.13;98232.75;4970482;28;1718;-78
2023/10/18 08:58:42;;;;;;;;;;;;;;;20.70;29.68;98227.19;4968241;28;1742;-78
2023/10/18 09:01:09;;;;;;;;;;;;;;;20.49;30.29;98238.91;4982967;28;1497;-78
2023/10/18 09:03:35;;;;;;;;;;;;;;;20.81;29.58;98236.25;4980165;28;1891;-78
2023/10/18 09:06:04;;;;;;;;;;;;;;;20.42;30.34;98236.19;4981894;28;1794;-78
2023/10/18 09:08:38;;;;;;;;;;;;;;;20.63;30.14;98238.66;4976767;28;1869;-77
2023/10/18 09:11:21;;;;;;;;;;;;;;;20.53;30.16;98226.31;4991447;28;2018;-78
2023/10/18 09:14:08;;;;;;;;;;;;;;;20.35;30.63;98236.31;5016705;28;1567;-78
2023/10/18 09:16:40;;;;;;;;;;;;;;;20.58;30.19;98233.50;4993181;28;1595;-78
2023/10/18 09:19:06;;;;;;;;;;;;;;;20.34;30.73;98234.72;5009456;28;1551;-78
2023/10/18 09:21:44;;;;;;;;;;;;;;;20.53;29.97;98231.16;4961789;28;1586;-78
2023/10/18 09:24:09;;;;;;;;;;;;;;;20.57;30.07;98229.06;4957034;28;1918;-78
2023/10/18 09:26:41;;;;;;;;;;;;;;;20.53;29.97;98231.16;4935377;29;1800;-78
2023/10/18 09:29:08;;;;;;;;;;;;;;;20.63;30.14;98235.03;4909712;29;1487;-78
2023/10/18 09:31:34;;;;;;;;;;;;;;;21.19;29.70;98227.44;4920864;29;1538;-78
2023/10/18 09:33:59;;;;;;;;;;;;;;;21.41;29.40;98232.66;4920104;29;1503;-78
2023/10/18 09:36:29;;;;;;;;;;;;;;;21.32;29.37;98228.38;4917880;29;1579;-78
2023/10/18 09:38:55;;;;;;;;;;;;;;;20.99;29.84;98243.63;4902792;29;1563;-78
2023/10/18 09:41:21;;;;;;;;;;;;;;;20.79;29.93;98238.75;4902533;29;1472;-78
2023/10/18 09:43:49;;;;;;;;;;;;;;;20.80;30.20;98234.69;4902257;29;1989;-78
2023/10/18 09:46:15;;;;;;;;;;;;;;;20.52;30.43;98243.69;4904117;29;1613;-78
2023/10/18 09:48:41;;;;;;;;;;;;;;;20.65;30.31;98244.66;4937349;29;1499;-78
2023/10/18 09:51:07;;;;;;;;;;;;;;;20.70;30.10;98241.34;4936731;29;1538;-78
2023/10/18 09:53:42;;;;;;;;;;;;;;;20.74;30.12;98236.41;4936950;29;1590;-78
2023/10/18 09:56:14;;;;;;;;;;;;;;;20.88;29.74;98235.34;4975573;28;1513;-78
2023/10/18 09:58:43;;;;;;;;;;;;;;;20.63;30.31;98230.16;4996874;28;1512;-78
2023/10/18 10:01:14;;;;;;;;;;;;;;;20.62;30.38;98222.91;5014357;28;1536;-78
2023/10/18 10:03:42;;;;;;;;;;;;;;;20.55;30.48;98223.03;4993380;28;1997;-77
2023/10/18 10:06:07;;;;;;;;;;;;;;;20.52;30.63;98221.06;5007983;28;1612;-77
2023/10/18 10:08:35;;;;;;;;;;;;;;;20.32;30.78;98214.56;4972637;28;1482;-78
2023/10/18 10:11:13;;;;;;;;;;;;;;;21.35;29.78;98217.41;4964173;28;1649;-78
2023/10/18 10:13:38;;;;;;;;;;;;;;;21.64;29.26;98207.03;4982826;28;1599;-78
2023/10/18 10:16:08;;;;;;;;;;;;;;;21.44;29.21;98206.28;4964185;28;1645;-78
2023/10/18 10:18:35;;;;;;;;;;;;;;;20.84;30.45;98211.19;4978899;28;1807;-77
2023/10/18 10:21:01;;;;;;;;;;;;;;;20.79;30.34;98209.66;5011651;28;1551;-78
2023/10/18 10:23:27;;;;;;;;;;;;;;;20.69;30.49;98211.47;5033924;28;1910;-78
2023/10/18 10:25:59;;;;;;;;;;;;;;;20.97;29.84;98203.63;5033918;28;1605;-78
2023/10/18 10:28:47;;;;;;;;;;;;;;;20.71;30.48;98203.34;5033605;28;1573;-78
2023/10/18 10:31:21;;;;;;;;;;;;;;;20.64;30.68;98214.00;5037501;28;1479;-77
2023/10/18 10:34:03;;;;;;;;;;;;;;;20.66;30.40;98206.66;5037196;28;1336;-78
2023/10/18 10:36:29;;;;;;;;;;;;;;;20.62;30.73;98199.47;5037218;28;1589;-78
2023/10/18 10:38:55;;;;;;;;;;;;;;;20.67;30.38;98213.13;5037277;28;1487;-78
2023/10/18 10:41:23;;;;;;;;;;;;;;;20.63;30.28;98196.25;5036155;28;1482;-78
2023/10/18 10:44:07;;;;;;;;;;;;;;;20.53;30.62;98202.91;5036446;28;1967;-78
2023/10/18 10:46:39;;;;;;;;;;;;;;;20.60;30.32;98205.59;5020162;28;1629;-78
2023/10/18 10:49:28;;;;;;;;;;;;;;;20.79;30.35;98204.81;5021167;28;1507;-78
2023/10/18 10:51:56;;;;;;;;;;;;;;;20.54;30.39;98204.50;5020858;28;1504;-78
2023/10/18 10:54:24;;;;;;;;;;;;;;;20.63;30.24;98201.91;4981008;28;1669;-78
2023/10/18 10:56:53;;;;;;;;;;;;;;;20.52;30.35;98198.44;4980793;28;1520;-77
2023/10/18 10:59:22;;;;;;;;;;;;;;;20.72;30.36;98193.63;4964076;28;1544;-78
2023/10/18 11:04:27;;;;;;;;;;;;;;;20.67;30.36;98191.28;4981505;28;1983;-78
2023/10/18 11:06:56;;;;;;;;;;;;;;;20.60;30.31;98191.44;4995994;28;1721;-78
2023/10/18 11:09:27;;;;;;;;;;;;;;;20.26;30.68;98194.47;4981224;28;1552;-78
2023/10/18 11:11:55;;;;;;;;;;;;;;;20.38;30.66;98184.59;4995181;28;1568;-78
2023/10/18 11:14:27;;;;;;;;;;;;;;;20.63;30.34;98190.59;4968328;28;1497;-78
2023/10/18 11:17:09;;;;;;;;;;;;;;;20.46;30.40;98191.69;4990313;28;1656;-78
2023/10/18 11:19:40;;;;;;;;;;;;;;;20.97;29.89;98195.16;4969546;28;1498;-77
2023/10/18 11:22:06;;;;;;;;;;;;;;;21.35;29.79;98194.75;4986250;28;1540;-77
2023/10/18 11:24:32;;;;;;;;;;;;;;;21.49;29.85;98188.78;4993067;28;1914;-78
2023/10/18 11:26:58;;;;;;;;;;;;;;;21.24;29.88;98190.13;4941956;28;1534;-78
2023/10/18 11:29:26;;;;;;;;;;;;;;;21.13;30.11;98188.75;4976535;28;1477;-78
2023/10/18 11:31:55;;;;;;;;;;;;;;;20.81;30.37;98179.69;4974666;28;1635;-77
2023/10/18 11:34:26;;;;;;;;;;;;;;;20.88;30.07;98183.59;4974691;28;1450;-78
2023/10/18 11:36:55;;;;;;;;;;;;;;;20.91;30.30;98177.09;4994516;28;1702;-78
2023/10/18 11:39:23;;;;;;;;;;;;;;;20.76;30.48;98176.59;5015665;28;1591;-78
2023/10/18 11:41:49;;;;;;;;;;;;;;;20.53;30.80;98174.63;5032694;28;1500;-78
2023/10/18 11:44:32;;;;;;;;;;;;;;;20.70;30.43;98173.47;5048902;28;1909;-78
2023/10/18 11:47:02;;;;;;;;;;;;;;;20.53;30.92;98180.28;4999979;28;1386;-78
2023/10/18 11:49:35;;;;;;;;;;;;;;;20.53;30.98;98174.63;4988281;28;1591;-78
2023/10/18 11:52:01;;;;;;;;;;;;;;;20.55;31.05;98172.16;4979937;28;1595;-78
2023/10/18 11:54:33;;;;;;;;;;;;;;;20.39;31.18;98169.22;4983643;28;1426;-78
2023/10/18 11:56:59;;;;;;;;;;;;;;;20.46;31.03;98175.53;4995697;28;1505;-78
2023/10/18 11:59:24;;;;;;;;;;;;;;;20.65;30.65;98173.97;5026694;28;1515;-78
2023/10/18 12:01:54;;;;;;;;;;;;;;;20.62;30.88;98183.31;4994076;28;1576;-77
2023/10/18 12:04:27;;;;;;;;;;;;;;;20.54;30.61;98181.88;4975926;28;1906;-78
2023/10/18 12:06:52;;;;;;;;;;;;;;;20.69;30.71;98176.75;4997881;28;1511;-78
2023/10/18 12:11:43;;;;;;;;;;;;;;;20.68;30.50;98169.50;4990683;28;1599;-78
2023/10/18 12:14:09;;;;;;;;;;;;;;;20.38;31.23;98174.06;4995961;28;1477;-78
2023/10/18 12:16:34;;;;;;;;;;;;;;;20.34;31.13;98166.88;4996869;28;1524;-78
2023/10/18 12:19:00;;;;;;;;;;;;;;;20.68;30.39;98169.50;4996884;28;1509;-78
2023/10/18 12:21:31;;;;;;;;;;;;;;;20.53;30.87;98160.50;4996778;28;1644;-78
2023/10/18 12:23:57;;;;;;;;;;;;;;;20.62;30.38;98163.53;4996907;28;1914;-78
2023/10/18 12:26:26;;;;;;;;;;;;;;;20.58;30.39;98162.81;4979563;28;1690;-78
2023/10/18 12:28:52;;;;;;;;;;;;;;;20.51;30.51;98160.13;4980767;28;1517;-78
2023/10/18 12:34:08;;;;;;;;;;;;;;;20.61;30.36;98161.13;4958035;28;1482;-77
2023/10/18 12:36:38;;;;;;;;;;;;;;;20.57;30.27;98158.38;4961331;28;1659;-78
2023/10/18 12:39:06;;;;;;;;;;;;;;;20.74;30.35;98150.78;4977027;28;1513;-78
2023/10/18 12:41:32;;;;;;;;;;;;;;;20.52;30.38;98161.72;4919581;29;1492;-78
2023/10/18 12:43:58;;;;;;;;;;;;;;;20.60;30.19;98160.34;4919388;29;1910;-78
2023/10/18 12:46:24;;;;;;;;;;;;;;;20.29;30.82;98160.50;4919724;29;1543;-78
2023/10/18 12:48:49;;;;;;;;;;;;;;;20.68;30.50;98170.28;4919690;29;1579;-77
2023/10/18 12:51:17;;;;;;;;;;;;;;;20.43;30.69;98156.63;4919429;29;1527;-78
2023/10/18 12:53:49;;;;;;;;;;;;;;;20.56;30.30;98159.63;4919230;29;1618;-78
2023/10/18 12:58:59;;;;;;;;;;;;;;;20.43;30.61;98156.63;4904955;29;1547;-79
2023/10/18 13:04:23;;;;;;;;;;;;;;;20.49;30.39;98156.94;4918440;29;1978;-78
2023/10/18 13:06:49;;;;;;;;;;;;;;;20.66;30.05;98150.13;4919407;29;1658;-78
2023/10/18 13:14:13;;;;;;;;;;;;;;;20.62;30.04;98140.91;4975265;28;1678;-78
2023/10/18 13:16:39;;;;;;;;;;;;;;;20.53;30.32;98154.84;4993396;28;1687;-77
2023/10/18 13:19:06;;;;;;;;;;;;;;;20.44;30.45;98149.72;4966843;28;1529;-78
2023/10/18 13:21:32;;;;;;;;;;;;;;;20.51;30.32;98143.16;4990145;28;1608;-78
2023/10/18 13:26:44;;;;;;;;;;;;;;;20.67;30.32;98139.59;4976331;28;1521;-78
2023/10/18 13:29:29;;;;;;;;;;;;;;;20.51;30.25;98143.16;4946862;29;1537;-78
2023/10/18 13:31:57;;;;;;;;;;;;;;;20.60;30.32;98134.09;4943190;29;1657;-78
2023/10/18 13:34:24;;;;;;;;;;;;;;;20.59;30.06;98138.19;4940634;29;1456;-78
2023/10/18 13:36:51;;;;;;;;;;;;;;;20.60;30.20;98134.91;4956748;28;1558;-78
2023/10/18 13:39:17;;;;;;;;;;;;;;;20.43;30.56;98133.22;4938510;29;1535;-78
2023/10/18 13:41:46;;;;;;;;;;;;;;;20.60;30.08;98140.56;4953968;29;1506;-78
2023/10/18 13:44:12;;;;;;;;;;;;;;;20.45;30.61;98136.38;4921584;29;1922;-78
2023/10/18 13:46:38;;;;;;;;;;;;;;;20.61;29.99;98128.00;4923396;29;1598;-78
2023/10/18 13:49:08;;;;;;;;;;;;;;;20.67;29.92;98122.63;4958315;28;1532;-78
2023/10/18 13:51:37;;;;;;;;;;;;;;;20.67;30.06;98122.63;4952996;29;1521;-78
2023/10/18 13:54:07;;;;;;;;;;;;;;;20.77;29.64;98122.41;4959239;28;1501;-78